Time;durP1;ratioP1;P1;durP2;ratioP2;P2;SDS_P1;SDS_P2;PMS_P1;PMS_P2;Temp;Humidity;BMP_temperature;BMP_pressure;BME280_temperature;BME280_humidity;BME280_pressure;Samples;Min_cycle;Max_cycle;Signal;HPM_P1;HPM_P2
2022/03/13 00:00:36;;;;;;;14.75;9.38;;;;;;;9.88;55.42;101308.72;4988390;28;20030;-86
2022/03/13 00:03:09;;;;;;;14.93;9.02;;;;;;;9.85;55.98;101311.50;4988049;28;20420;-87
2022/03/13 00:05:40;;;;;;;14.05;9.18;;;;;;;9.83;56.24;101312.50;4989046;28;20030;-87
2022/03/13 00:08:25;;;;;;;13.48;9.52;;;;;;;9.78;56.03;101307.38;4988524;28;20109;-88
2022/03/13 00:10:56;;;;;;;13.20;9.90;;;;;;;9.83;55.99;101312.50;4973130;28;20134;-87
2022/03/13 00:13:31;;;;;;;17.70;11.05;;;;;;;9.78;55.80;101307.38;4986180;28;20057;-88
2022/03/13 00:15:59;;;;;;;17.38;11.25;;;;;;;9.78;56.05;101311.81;4989957;28;20038;-87
2022/03/13 00:18:24;;;;;;;18.05;11.80;;;;;;;9.76;55.97;101311.88;4988802;28;20034;-88
2022/03/13 00:20:51;;;;;;;18.50;11.00;;;;;;;9.72;55.89;101310.28;4983946;28;20026;-88
2022/03/13 00:23:16;;;;;;;16.33;11.43;;;;;;;9.67;56.01;101305.13;4979957;28;20404;-88
2022/03/13 00:25:42;;;;;;;16.05;11.35;;;;;;;9.64;55.59;101293.75;4981665;28;20027;-88
2022/03/13 00:28:07;;;;;;;16.02;11.02;;;;;;;9.69;55.81;101297.97;4985020;28;20434;-87
2022/03/13 00:30:35;;;;;;;16.48;10.88;;;;;;;9.62;55.77;101287.66;4988943;28;20027;-87
2022/03/13 00:33:00;;;;;;;15.73;11.15;;;;;;;9.63;55.91;101287.59;4980042;28;20023;-87
2022/03/13 00:35:26;;;;;;;16.02;10.80;;;;;;;9.63;55.89;101281.41;4990122;28;20104;-88
2022/03/13 00:37:52;;;;;;;18.15;11.25;;;;;;;9.57;56.16;101271.91;4986861;28;20034;-87
2022/03/13 00:40:18;;;;;;;17.67;12.18;;;;;;;9.57;56.05;101284.28;4971645;28;20023;-88
2022/03/13 00:42:44;;;;;;;16.90;12.18;;;;;;;9.50;56.32;101278.38;4984075;28;20097;-88
2022/03/13 00:45:09;;;;;;;17.15;11.55;;;;;;;9.44;56.29;101287.44;4987007;28;20029;-88
2022/03/13 00:47:35;;;;;;;16.42;11.13;;;;;;;9.42;56.74;101291.09;4985799;28;20030;-88
2022/03/13 00:50:00;;;;;;;18.08;12.20;;;;;;;9.35;56.88;101290.44;4989108;28;20018;-88
2022/03/13 00:52:25;;;;;;;17.08;11.63;;;;;;;9.22;57.43;101276.78;4985865;28;20446;-88
2022/03/13 00:54:50;;;;;;;17.95;12.45;;;;;;;9.18;57.76;101277.81;4989106;28;20460;-87
2022/03/13 00:57:17;;;;;;;15.93;11.65;;;;;;;9.12;57.62;101271.88;4984484;28;20031;-87
2022/03/13 00:59:42;;;;;;;16.25;11.90;;;;;;;9.15;58.13;101272.59;4978407;28;20156;-87
2022/03/13 01:02:09;;;;;;;17.20;11.82;;;;;;;9.17;57.83;101270.78;4985135;28;20109;-88
2022/03/13 01:04:35;;;;;;;15.77;11.27;;;;;;;9.14;58.09;101272.69;4989480;28;20029;-87
2022/03/13 01:07:01;;;;;;;16.33;12.10;;;;;;;9.06;58.55;101258.81;4988550;28;20419;-88
2022/03/13 01:09:26;;;;;;;17.33;11.07;;;;;;;9.06;58.29;101264.13;4981673;28;20447;-88
2022/03/13 01:11:52;;;;;;;18.20;11.93;;;;;;;8.97;59.02;101247.63;4969751;28;20027;-87
2022/03/13 01:14:19;;;;;;;16.27;11.55;;;;;;;8.94;58.94;101257.50;4975915;28;20038;-88
2022/03/13 01:16:46;;;;;;;16.65;11.02;;;;;;;8.89;59.45;101238.22;4989461;28;20046;-88
2022/03/13 01:19:11;;;;;;;17.50;11.20;;;;;;;8.84;59.57;101246.38;4988839;28;20026;-87
2022/03/13 01:21:38;;;;;;;15.95;11.27;;;;;;;8.74;59.72;101237.03;4987541;28;20030;-87
2022/03/13 01:24:26;;;;;;;15.82;10.30;;;;;;;8.75;59.14;101248.50;4985838;28;20019;-87
2022/03/13 01:26:53;;;;;;;15.85;11.15;;;;;;;8.62;60.49;101235.69;4988159;28;20038;-87
2022/03/13 01:29:18;;;;;;;13.57;10.38;;;;;;;8.62;60.78;101245.44;4981228;28;20042;-87
2022/03/13 01:31:45;;;;;;;14.05;10.23;;;;;;;8.57;60.69;101239.41;4982744;28;20030;-87
2022/03/13 01:34:25;;;;;;;15.38;9.85;;;;;;;8.51;61.06;101232.53;4979176;28;20447;-87
2022/03/13 01:36:50;;;;;;;13.80;9.23;;;;;;;8.42;61.24;101223.13;4985347;28;20377;-87
2022/03/13 01:39:16;;;;;;;12.98;9.18;;;;;;;8.39;61.67;101228.53;4982623;28;20106;-87
2022/03/13 01:41:41;;;;;;;12.60;9.35;;;;;;;8.32;61.55;101224.34;4981550;28;20045;-87
2022/03/13 01:44:06;;;;;;;14.05;9.80;;;;;;;8.27;61.97;101209.50;4988206;28;20065;-87
2022/03/13 01:46:31;;;;;;;11.75;8.77;;;;;;;8.29;62.35;101229.75;4988464;28;20395;-86
2022/03/13 01:49:06;;;;;;;11.32;8.90;;;;;;;8.21;62.23;101210.59;4988038;28;20026;-87
2022/03/13 01:51:33;;;;;;;11.40;8.93;;;;;;;8.23;62.73;101203.44;4981788;28;20221;-88
2022/03/13 01:54:02;;;;;;;13.32;8.98;;;;;;;8.31;62.51;101217.28;4981850;28;20041;-87
2022/03/13 01:56:29;;;;;;;12.55;8.73;;;;;;;8.28;62.60;101203.28;4987933;28;20073;-87
2022/03/13 01:58:55;;;;;;;12.75;9.32;;;;;;;8.31;62.65;101219.09;4986908;28;20030;-87
2022/03/13 02:01:23;;;;;;;13.93;9.45;;;;;;;8.26;62.68;101199.81;4984296;28;20345;-88
2022/03/13 02:03:49;;;;;;;13.40;10.65;;;;;;;8.31;62.54;101209.34;4987774;28;20480;-87
2022/03/13 02:06:15;;;;;;;17.10;11.55;;;;;;;8.34;62.26;101209.25;4988140;28;20089;-88
2022/03/13 02:08:43;;;;;;;19.27;11.10;;;;;;;8.35;62.14;101205.66;4987632;28;20034;-87
2022/03/13 02:11:08;;;;;;;18.60;12.65;;;;;;;8.36;61.97;101202.09;4986732;28;20030;-87
2022/03/13 02:13:34;;;;;;;15.85;11.43;;;;;;;8.37;62.27;101201.22;4987491;28;20047;-88
2022/03/13 02:16:00;;;;;;;18.85;12.32;;;;;;;8.31;61.81;101193.44;4972503;28;20031;-88
2022/03/13 02:18:26;;;;;;;16.95;12.15;;;;;;;8.35;61.80;101189.75;4987963;28;20041;-87
2022/03/13 02:20:51;;;;;;;17.70;12.10;;;;;;;8.35;62.22;101199.50;4986195;28;20109;-88
2022/03/13 02:23:21;;;;;;;19.20;12.18;;;;;;;8.30;61.78;101188.19;4978556;28;20144;-88
2022/03/13 02:25:48;;;;;;;19.45;13.50;;;;;;;8.31;61.73;101187.25;4984066;28;20030;-88
2022/03/13 02:28:14;;;;;;;19.15;13.30;;;;;;;8.27;61.99;101190.94;4985421;28;20030;-87
2022/03/13 02:30:39;;;;;;;19.67;12.70;;;;;;;8.26;61.91;101187.44;4982210;28;20538;-87
2022/03/13 02:33:05;;;;;;;21.33;13.60;;;;;;;8.31;62.25;101193.44;4985819;28;20053;-87
2022/03/13 02:35:30;;;;;;;17.60;12.82;;;;;;;8.30;61.99;101191.69;4987973;28;20498;-88
2022/03/13 02:37:55;;;;;;;19.85;13.32;;;;;;;8.30;62.25;101191.69;4988061;28;20043;-88
2022/03/13 02:40:23;;;;;;;20.63;13.30;;;;;;;8.30;62.00;101191.69;4985958;28;20045;-88
2022/03/13 02:42:50;;;;;;;18.38;12.85;;;;;;;8.28;62.17;101192.66;4987874;28;20479;-87
2022/03/13 02:45:29;;;;;;;18.85;12.70;;;;;;;8.29;61.77;101189.13;4990701;28;20109;-87
2022/03/13 02:47:54;;;;;;;23.13;14.07;;;;;;;8.31;62.22;101189.91;4991066;28;20104;-88
2022/03/13 02:50:20;;;;;;;17.77;13.15;;;;;;;8.34;62.69;101187.16;4983381;28;20088;-88
2022/03/13 02:52:45;;;;;;;19.20;13.35;;;;;;;8.30;62.72;101175.78;4990176;28;20124;-88
2022/03/13 02:55:10;;;;;;;21.58;13.82;;;;;;;8.25;63.07;101169.78;4988021;28;20471;-86
2022/03/13 02:57:36;;;;;;;20.55;13.73;;;;;;;8.28;63.72;101175.00;4989247;28;20336;-88
2022/03/13 03:00:01;;;;;;;20.98;14.13;;;;;;;8.25;63.79;101175.09;4980346;28;20061;-87
2022/03/13 03:02:26;;;;;;;21.98;13.80;;;;;;;8.21;64.24;101169.03;4987999;28;20034;-87
2022/03/13 03:04:54;;;;;;;21.45;13.82;;;;;;;8.19;64.72;101167.34;4991402;28;20538;-87
2022/03/13 03:07:20;;;;;;;21.83;14.70;;;;;;;8.13;64.48;101157.84;4991394;28;20041;-87
2022/03/13 03:09:45;;;;;;;20.98;14.10;;;;;;;8.17;65.21;101166.56;4989491;28;20424;-88
2022/03/13 03:12:11;;;;;;;19.63;14.45;;;;;;;8.15;64.84;101161.31;4991048;28;20022;-88
2022/03/13 03:14:36;;;;;;;21.80;15.20;;;;;;;8.18;65.29;101166.47;4991648;28;20078;-87
2022/03/13 03:17:03;;;;;;;21.83;14.77;;;;;;;8.16;65.40;101172.78;4991553;28;20062;-87
2022/03/13 03:19:29;;;;;;;24.40;15.25;;;;;;;8.08;66.01;101156.28;4985817;28;20042;-87
2022/03/13 03:21:54;;;;;;;23.30;14.77;;;;;;;8.10;65.64;101162.38;4982574;28;20510;-87
2022/03/13 03:24:23;;;;;;;21.40;15.25;;;;;;;8.05;66.53;101162.53;4991270;28;20061;-88
2022/03/13 03:26:49;;;;;;;21.02;14.45;;;;;;;8.06;65.97;101156.31;4990903;28;20150;-87
2022/03/13 03:29:14;;;;;;;20.63;14.77;;;;;;;8.03;66.14;101156.44;4988631;28;20037;-87
2022/03/13 03:31:42;;;;;;;23.05;14.95;;;;;;;8.03;66.10;101168.84;5003208;28;20026;-87
2022/03/13 03:34:10;;;;;;;21.50;14.98;;;;;;;8.00;66.38;101164.50;4984009;28;20371;-87
2022/03/13 03:36:40;;;;;;;22.13;15.05;;;;;;;7.94;66.35;101154.97;4990934;28;20049;-87
2022/03/13 03:39:07;;;;;;;21.52;14.65;;;;;;;7.98;66.40;101159.25;4984357;28;20356;-87
2022/03/13 03:41:32;;;;;;;23.80;16.15;;;;;;;7.96;66.34;101161.09;4983581;28;20081;-87
2022/03/13 03:43:57;;;;;;;23.92;15.23;;;;;;;7.90;66.21;101155.13;4990734;28;20030;-87
2022/03/13 03:46:24;;;;;;;22.90;15.48;;;;;;;7.88;66.38;101154.31;4990460;28;20041;-87
2022/03/13 03:48:49;;;;;;;23.27;15.77;;;;;;;7.87;66.46;101153.47;4988531;28;20022;-87
2022/03/13 03:51:15;;;;;;;25.17;16.20;;;;;;;7.89;66.39;101154.25;4983175;28;20050;-87
2022/03/13 03:53:40;;;;;;;26.10;16.20;;;;;;;7.88;66.00;101152.53;4974515;28;20387;-87
2022/03/13 03:56:05;;;;;;;25.02;16.30;;;;;;;7.87;65.96;101152.59;4990004;28;20072;-88
2022/03/13 03:58:31;;;;;;;24.60;16.42;;;;;;;7.85;65.95;101144.69;4990437;28;20506;-87
2022/03/13 04:00:56;;;;;;;25.67;17.25;;;;;;;7.89;65.51;101156.03;4989031;28;20030;-87
2022/03/13 04:03:21;;;;;;;27.05;17.60;;;;;;;7.89;65.83;101158.69;4990696;28;20165;-87
2022/03/13 04:05:47;;;;;;;23.95;16.58;;;;;;;7.91;65.39;101157.72;4990015;28;20088;-87
2022/03/13 04:08:12;;;;;;;24.70;16.25;;;;;;;7.91;65.22;101159.53;4985225;28;20038;-86
2022/03/13 04:10:38;;;;;;;27.27;17.38;;;;;;;7.79;65.90;101144.91;4989452;28;20030;-86
2022/03/13 04:13:04;;;;;;;26.13;17.77;;;;;;;7.79;66.22;101144.91;4985060;28;20108;-86
2022/03/13 04:15:29;;;;;;;25.77;17.48;;;;;;;7.73;66.27;101142.44;4990370;28;20038;-86
2022/03/13 04:17:55;;;;;;;28.38;17.50;;;;;;;7.72;65.81;101141.59;4985636;28;20019;-87
2022/03/13 04:20:21;;;;;;;26.15;17.38;;;;;;;7.74;65.33;101147.72;4983591;28;20027;-87
2022/03/13 04:22:46;;;;;;;27.48;18.50;;;;;;;7.73;65.34;101137.16;4983795;28;20022;-87
2022/03/13 04:25:12;;;;;;;25.85;17.77;;;;;;;7.71;65.35;101131.91;4990020;28;20614;-87
2022/03/13 04:27:37;;;;;;;24.33;17.67;;;;;;;7.77;65.03;101144.06;4990785;28;20030;-86
2022/03/13 04:30:03;;;;;;;25.85;17.40;;;;;;;7.72;64.06;101138.94;4983734;28;20033;-86
2022/03/13 04:32:29;;;;;;;27.60;17.25;;;;;;;7.76;64.20;101134.41;4990589;28;20080;-86
2022/03/13 04:34:55;;;;;;;29.30;17.85;;;;;;;7.76;64.28;101145.00;4990244;28;20112;-87
2022/03/13 04:37:22;;;;;;;26.50;17.38;;;;;;;7.64;65.31;101142.78;4989904;28;20077;-87
2022/03/13 04:39:50;;;;;;;26.10;17.75;;;;;;;7.56;66.52;101144.81;4982127;28;20023;-87
2022/03/13 04:42:16;;;;;;;27.60;18.13;;;;;;;7.49;66.69;101150.31;4981510;28;20030;-88
2022/03/13 04:44:41;;;;;;;26.70;17.50;;;;;;;7.42;66.87;101151.44;4989512;28;20161;-87
2022/03/13 04:47:06;;;;;;;26.10;18.08;;;;;;;7.36;68.17;101158.72;4990229;28;20479;-88
2022/03/13 04:49:32;;;;;;;28.92;19.08;;;;;;;7.24;69.84;101166.16;4986236;28;20034;-87
2022/03/13 04:51:57;;;;;;;28.40;17.92;;;;;;;7.09;70.56;101144.59;4984593;28;20031;-87
2022/03/13 04:54:22;;;;;;;27.02;17.80;;;;;;;6.93;72.13;101150.34;4978654;28;20110;-87
2022/03/13 04:56:48;;;;;;;27.98;18.98;;;;;;;6.78;71.90;101153.47;4990418;28;20034;-87
2022/03/13 04:59:13;;;;;;;30.00;18.67;;;;;;;6.61;71.86;101147.84;4987157;28;20023;-86
2022/03/13 05:01:39;;;;;;;27.15;17.67;;;;;;;6.53;72.37;101149.84;4990270;28;20066;-86
2022/03/13 05:04:05;;;;;;;26.80;17.92;;;;;;;6.40;73.54;101139.59;4989622;28;20030;-86
2022/03/13 05:06:31;;;;;;;28.48;18.23;;;;;;;6.37;73.32;101131.75;4989722;28;20038;-86
2022/03/13 05:08:56;;;;;;;28.23;18.02;;;;;;;6.44;72.09;101149.19;4987153;28;20503;-86
2022/03/13 05:11:21;;;;;;;24.40;17.38;;;;;;;6.45;72.98;101137.69;4989609;28;20030;-87
2022/03/13 05:13:47;;;;;;;29.25;18.27;;;;;;;6.52;72.22;101142.78;4987846;28;20046;-86
2022/03/13 05:16:12;;;;;;;28.70;17.83;;;;;;;6.54;73.02;101133.91;4984136;28;20258;-86
2022/03/13 05:18:37;;;;;;;30.83;18.65;;;;;;;6.64;72.15;101137.13;4987049;28;20034;-86
2022/03/13 05:21:03;;;;;;;27.95;17.55;;;;;;;6.69;71.89;101143.19;4986026;28;20022;-86
2022/03/13 05:23:28;;;;;;;31.75;17.92;;;;;;;6.70;71.32;101139.63;4988091;28;20254;-85
2022/03/13 05:25:53;;;;;;;29.50;17.13;;;;;;;6.78;71.29;101137.59;4987980;28;20076;-85
2022/03/13 05:28:19;;;;;;;26.35;16.73;;;;;;;6.80;70.90;101142.84;4986537;28;20411;-86
2022/03/13 05:30:46;;;;;;;25.98;17.05;;;;;;;6.82;70.85;101149.81;4986083;28;20030;-87
2022/03/13 05:33:11;;;;;;;25.70;16.92;;;;;;;6.87;70.83;101144.41;4986003;28;20029;-86
2022/03/13 05:35:37;;;;;;;25.70;16.73;;;;;;;6.87;71.07;101134.66;4987829;28;20034;-86
2022/03/13 05:38:02;;;;;;;25.00;16.38;;;;;;;6.82;70.24;101139.25;4986342;28;20110;-87
2022/03/13 05:40:28;;;;;;;24.20;15.98;;;;;;;6.89;70.65;101150.50;4986733;28;20038;-87
2022/03/13 05:42:57;;;;;;;24.42;16.00;;;;;;;6.81;70.00;101134.84;4985060;28;20048;-87
2022/03/13 05:45:25;;;;;;;22.70;15.95;;;;;;;6.81;69.77;101137.50;4986143;28;20143;-87
2022/03/13 05:47:54;;;;;;;25.45;16.27;;;;;;;6.88;68.72;101152.28;4989060;28;20436;-87
2022/03/13 05:50:21;;;;;;;23.58;15.75;;;;;;;6.88;68.40;101151.41;4979162;28;20038;-86
2022/03/13 05:52:48;;;;;;;22.88;15.82;;;;;;;6.90;67.66;101149.59;4989973;28;20112;-86
2022/03/13 05:55:15;;;;;;;24.63;16.02;;;;;;;6.86;68.40;101148.81;4989629;28;20491;-86
2022/03/13 05:57:40;;;;;;;26.98;16.52;;;;;;;6.90;68.24;101147.81;4988212;28;20158;-86
2022/03/13 06:00:12;;;;;;;25.75;16.00;;;;;;;6.86;68.00;101143.53;4974273;28;20027;-86
2022/03/13 06:02:38;;;;;;;26.75;16.63;;;;;;;6.88;68.31;101141.69;4970145;28;20031;-85
2022/03/13 06:05:05;;;;;;;26.55;16.38;;;;;;;6.87;67.98;101147.03;4975333;28;20023;-86
2022/03/13 06:07:30;;;;;;;26.63;16.45;;;;;;;6.90;68.06;101145.16;4989656;28;20123;-86
2022/03/13 06:10:02;;;;;;;24.05;16.38;;;;;;;6.84;67.95;101137.41;4974354;28;20480;-86
2022/03/13 06:12:27;;;;;;;24.85;15.90;;;;;;;6.88;67.31;101146.13;4970042;28;20356;-86
2022/03/13 06:14:52;;;;;;;25.27;16.42;;;;;;;6.88;66.88;101139.03;4975885;28;20026;-87
2022/03/13 06:17:18;;;;;;;22.45;15.63;;;;;;;6.94;66.69;101144.16;4987347;28;20023;-88
2022/03/13 06:19:44;;;;;;;22.88;15.88;;;;;;;6.93;66.72;101150.34;4979208;28;20074;-87
2022/03/13 06:22:11;;;;;;;27.35;16.02;;;;;;;6.95;66.91;101152.97;4976423;28;20109;-86
2022/03/13 06:24:36;;;;;;;25.38;16.27;;;;;;;6.93;67.18;101149.47;4990557;28;20026;-87
2022/03/13 06:27:02;;;;;;;23.92;15.35;;;;;;;6.91;66.79;101143.38;4993198;28;20447;-87
2022/03/13 06:29:30;;;;;;;22.58;15.48;;;;;;;6.95;66.83;101151.19;4981318;28;20039;-87
2022/03/13 06:31:56;;;;;;;22.02;15.35;;;;;;;6.90;66.23;101141.66;4984333;28;20085;-87
2022/03/13 06:34:21;;;;;;;23.45;15.63;;;;;;;6.97;65.62;101151.13;4991398;28;20097;-87
2022/03/13 06:36:46;;;;;;;22.48;15.60;;;;;;;6.98;66.38;101155.50;4993158;28;20034;-87
2022/03/13 06:39:11;;;;;;;24.20;15.45;;;;;;;6.97;66.20;101145.81;4991712;28;20085;-87
2022/03/13 06:41:38;;;;;;;23.13;15.50;;;;;;;6.96;66.08;101157.34;4993020;28;20022;-87
2022/03/13 06:44:04;;;;;;;20.65;14.73;;;;;;;6.94;65.80;101151.25;4982313;28;20031;-87
2022/03/13 06:46:29;;;;;;;23.98;14.52;;;;;;;6.97;65.64;101151.97;4987784;28;20054;-87
2022/03/13 06:48:54;;;;;;;24.65;15.45;;;;;;;6.93;65.54;101141.53;4975275;28;20027;-87
2022/03/13 06:51:20;;;;;;;20.73;14.63;;;;;;;6.99;64.60;101151.94;4986345;28;20443;-88
2022/03/13 06:53:45;;;;;;;26.70;14.45;;;;;;;7.02;64.95;101158.91;4992791;28;20030;-87
2022/03/13 06:56:10;;;;;;;25.50;15.32;;;;;;;7.01;65.17;101147.47;4992493;28;20050;-86
2022/03/13 06:58:35;;;;;;;21.02;14.45;;;;;;;7.13;64.69;101162.97;4987136;28;20496;-85
2022/03/13 07:01:01;;;;;;;20.98;14.30;;;;;;;7.21;65.34;101154.78;4978537;28;20023;-88
2022/03/13 07:03:26;;;;;;;22.30;14.65;;;;;;;7.21;64.89;101154.78;4990596;28;20332;-87
2022/03/13 07:05:52;;;;;;;22.50;15.05;;;;;;;7.30;65.31;101156.28;4974062;28;20117;-87
2022/03/13 07:08:17;;;;;;;24.45;15.68;;;;;;;7.23;63.85;101142.34;4961288;28;20476;-87
2022/03/13 07:10:43;;;;;;;22.88;15.15;;;;;;;7.28;64.22;101156.31;4993000;28;20084;-87
2022/03/13 07:13:08;;;;;;;25.35;16.13;;;;;;;7.29;64.70;101163.34;4976938;28;20480;-87
2022/03/13 07:15:34;;;;;;;25.70;15.43;;;;;;;7.26;64.21;101146.69;4991724;28;20070;-87
2022/03/13 07:17:59;;;;;;;24.98;15.77;;;;;;;7.31;64.62;101147.41;4984148;28;20034;-87
2022/03/13 07:20:24;;;;;;;25.80;15.57;;;;;;;7.33;64.91;101154.41;4986910;28;20042;-87
2022/03/13 07:22:50;;;;;;;22.95;16.08;;;;;;;7.30;64.64;101149.19;4990847;28;20456;-88
2022/03/13 07:25:16;;;;;;;23.83;15.77;;;;;;;7.26;65.57;101139.59;4978081;28;20392;-86
2022/03/13 07:27:42;;;;;;;24.30;16.10;;;;;;;7.20;65.99;101145.13;4980471;28;20026;-88
2022/03/13 07:30:12;;;;;;;24.08;15.63;;;;;;;7.19;65.90;101153.94;4971595;28;20472;-87
2022/03/13 07:32:40;;;;;;;23.00;15.38;;;;;;;7.22;66.17;101146.78;4972334;28;20027;-87
2022/03/13 07:35:06;;;;;;;24.10;15.30;;;;;;;7.26;65.88;101142.25;4979376;28;20038;-87
2022/03/13 07:37:31;;;;;;;26.20;16.15;;;;;;;7.37;65.98;101144.56;4989564;28;20086;-87
2022/03/13 07:39:58;;;;;;;22.02;14.95;;;;;;;7.42;64.93;101139.97;4982845;28;20041;-87
2022/03/13 07:42:23;;;;;;;22.95;15.30;;;;;;;7.43;65.73;101139.91;4971869;28;20061;-89
2022/03/13 07:44:48;;;;;;;22.58;15.15;;;;;;;7.54;63.90;101147.53;4975212;28;20113;-87
2022/03/13 07:47:14;;;;;;;24.65;16.65;;;;;;;7.60;64.50;101139.34;4990510;28;20034;-89
2022/03/13 07:49:40;;;;;;;23.88;15.82;;;;;;;7.67;64.51;101146.19;4980017;28;20031;-87
2022/03/13 07:52:06;;;;;;;23.58;14.77;;;;;;;7.67;63.88;101137.38;4972980;28;20145;-88
2022/03/13 07:54:31;;;;;;;24.35;15.15;;;;;;;7.76;64.05;101141.50;4981048;28;20052;-87
2022/03/13 07:56:56;;;;;;;22.88;15.63;;;;;;;7.78;64.09;101144.97;4987159;28;20026;-86
2022/03/13 07:59:22;;;;;;;22.83;15.40;;;;;;;7.84;62.87;101134.16;4972649;28;20038;-89
2022/03/13 08:01:48;;;;;;;21.63;15.43;;;;;;;8.00;62.63;101145.94;4970933;28;20469;-87
2022/03/13 08:04:14;;;;;;;23.73;15.52;;;;;;;8.14;62.12;101140.13;4970899;28;20472;-84
2022/03/13 08:06:39;;;;;;;21.65;15.00;;;;;;;8.24;61.89;101129.16;4979588;28;20183;-84
2022/03/13 08:09:05;;;;;;;23.90;15.73;;;;;;;8.39;61.22;101137.50;4972325;28;20074;-85
2022/03/13 08:11:34;;;;;;;21.85;15.10;;;;;;;8.55;60.62;101143.09;4971826;28;20029;-84
2022/03/13 08:14:00;;;;;;;22.60;14.80;;;;;;;8.70;60.13;101146.03;4973479;28;20042;-83
2022/03/13 08:16:27;;;;;;;21.92;14.23;;;;;;;8.85;59.70;101141.91;4982896;28;20511;-84
2022/03/13 08:18:52;;;;;;;22.33;14.05;;;;;;;9.02;58.74;101132.41;4972405;28;20042;-84
2022/03/13 08:21:17;;;;;;;20.58;15.07;;;;;;;9.23;57.39;101128.91;4975519;28;20034;-84
2022/03/13 08:23:43;;;;;;;22.08;14.93;;;;;;;9.39;57.10;101134.44;4980692;28;20479;-83
2022/03/13 08:26:08;;;;;;;21.30;14.90;;;;;;;9.49;56.67;101122.53;4970323;28;20026;-83
2022/03/13 08:28:34;;;;;;;20.10;14.88;;;;;;;9.48;56.59;101124.28;4972508;28;20031;-84
2022/03/13 08:30:59;;;;;;;20.55;14.02;;;;;;;9.60;56.12;101135.34;4970061;28;20416;-84
2022/03/13 08:33:24;;;;;;;21.20;14.48;;;;;;;9.60;56.11;101130.91;4987755;28;21767;-85
2022/03/13 08:35:50;;;;;;;24.17;15.00;;;;;;;9.68;56.48;101142.06;4986934;28;20027;-85
2022/03/13 08:38:16;;;;;;;20.88;15.30;;;;;;;9.66;55.31;101133.31;4986334;28;20322;-86
2022/03/13 08:40:41;;;;;;;20.90;14.63;;;;;;;9.74;55.10;101138.31;4977295;28;20444;-86
2022/03/13 08:43:06;;;;;;;21.77;14.57;;;;;;;9.95;54.05;101142.69;4979860;28;20110;-85
2022/03/13 08:45:32;;;;;;;20.33;14.85;;;;;;;10.21;54.04;101132.69;4989103;28;20030;-86
2022/03/13 08:47:57;;;;;;;20.05;13.98;;;;;;;10.73;52.35;101141.84;4982945;28;20034;-86
2022/03/13 08:50:24;;;;;;;20.70;14.07;;;;;;;11.29;51.98;101131.22;4977538;28;20049;-86
2022/03/13 08:52:50;;;;;;;19.88;14.45;;;;;;;11.81;50.14;101110.78;5003383;28;20037;-86
2022/03/13 08:55:17;;;;;;;22.70;13.80;;;;;;;12.67;47.52;101132.94;4974706;28;20022;-87
2022/03/13 08:57:44;;;;;;;19.30;14.23;;;;;;;13.09;46.31;101124.34;4977551;28;20420;-86
2022/03/13 09:00:14;;;;;;;20.73;15.02;;;;;;;13.84;44.73;101117.31;4986466;28;20022;-86
2022/03/13 09:02:39;;;;;;;20.52;14.57;;;;;;;14.48;42.61;101103.56;4978427;28;20047;-87
2022/03/13 09:05:05;;;;;;;20.02;14.85;;;;;;;15.30;42.60;101121.50;4979610;28;20046;-86
2022/03/13 09:07:31;;;;;;;22.58;14.70;;;;;;;16.08;41.20;101113.56;4985980;28;20042;-87
2022/03/13 09:09:56;;;;;;;21.80;15.35;;;;;;;16.61;39.09;101101.69;4988830;28;20490;-86
2022/03/13 09:12:21;;;;;;;21.08;15.45;;;;;;;17.17;38.09;101112.00;4987975;28;20018;-87
2022/03/13 09:14:47;;;;;;;19.75;14.43;;;;;;;17.70;38.39;101112.47;4989055;28;20289;-87
2022/03/13 09:17:12;;;;;;;19.92;14.68;;;;;;;18.16;36.32;101106.25;4977225;28;20052;-86
2022/03/13 09:19:38;;;;;;;19.25;14.52;;;;;;;18.85;35.23;101114.22;4989012;28;20030;-88
2022/03/13 09:22:03;;;;;;;19.85;14.63;;;;;;;19.72;34.36;101098.03;4985273;28;20025;-87
2022/03/13 09:24:29;;;;;;;20.38;14.57;;;;;;;20.17;32.74;101097.75;4988341;28;20045;-88
2022/03/13 09:26:54;;;;;;;19.73;14.05;;;;;;;20.50;31.90;101107.50;4983654;28;20030;-88
2022/03/13 09:29:19;;;;;;;19.88;14.65;;;;;;;20.18;30.94;101105.72;4988118;28;20106;-86
2022/03/13 09:31:44;;;;;;;21.00;15.00;;;;;;;20.02;31.22;101105.34;4988119;28;20552;-87
2022/03/13 09:34:11;;;;;;;20.88;14.07;;;;;;;20.22;32.29;101107.16;4985497;28;20041;-88
2022/03/13 09:36:37;;;;;;;16.67;14.10;;;;;;;20.55;30.74;101108.78;4983347;28;20030;-86
2022/03/13 09:39:04;;;;;;;20.27;14.85;;;;;;;20.89;30.53;101108.47;4981880;28;20080;-87
2022/03/13 09:41:29;;;;;;;20.33;15.07;;;;;;;21.33;29.89;101104.47;4982350;28;20081;-87
2022/03/13 09:43:55;;;;;;;21.67;13.70;;;;;;;21.89;29.26;101109.13;4981974;28;20424;-87
2022/03/13 09:46:20;;;;;;;19.77;14.65;;;;;;;22.22;28.20;101096.09;4979111;28;20045;-86
2022/03/13 09:48:45;;;;;;;19.38;14.65;;;;;;;22.69;28.23;101103.34;4987556;28;20026;-87
2022/03/13 09:51:11;;;;;;;18.20;14.02;;;;;;;22.92;27.74;101106.56;4974775;28;20030;-86
2022/03/13 09:53:38;;;;;;;20.85;14.73;;;;;;;23.49;27.01;101112.56;4987823;28;20395;-87
2022/03/13 09:56:05;;;;;;;21.13;14.43;;;;;;;23.61;26.45;101103.16;4984598;28;20035;-86
2022/03/13 09:58:31;;;;;;;18.50;12.98;;;;;;;23.87;26.15;101100.56;4987421;28;20450;-87
2022/03/13 10:00:57;;;;;;;18.50;14.18;;;;;;;23.61;26.15;101108.59;4987892;28;20042;-87
2022/03/13 10:03:22;;;;;;;15.90;13.40;;;;;;;23.75;25.82;101096.38;4986818;28;20373;-86
2022/03/13 10:05:50;;;;;;;15.50;13.68;;;;;;;23.85;25.75;101099.84;4986229;28;20034;-87
2022/03/13 10:08:17;;;;;;;19.10;12.82;;;;;;;24.12;25.45;101101.59;4985849;28;20030;-87
2022/03/13 10:10:47;;;;;;;17.05;13.13;;;;;;;23.57;25.80;101102.63;4987680;28;20027;-87
2022/03/13 10:13:15;;;;;;;16.08;12.77;;;;;;;23.58;25.95;101108.94;4986274;28;20050;-87
2022/03/13 10:15:45;;;;;;;16.52;13.70;;;;;;;24.04;25.89;101102.38;4982642;28;20027;-86
2022/03/13 10:18:17;;;;;;;19.38;12.88;;;;;;;24.91;25.50;101084.13;4984907;28;20049;-85
2022/03/13 10:20:43;;;;;;;18.55;12.55;;;;;;;26.12;23.78;101089.88;4974117;28;20468;-82
2022/03/13 10:23:11;;;;;;;16.08;13.40;;;;;;;26.72;22.55;101092.13;4985128;28;20497;-85
2022/03/13 10:25:41;;;;;;;16.48;13.00;;;;;;;26.77;22.98;101086.13;4984708;28;20027;-85
2022/03/13 10:28:17;;;;;;;17.85;13.18;;;;;;;27.36;23.56;101086.47;4985544;28;20023;-84
2022/03/13 10:30:44;;;;;;;17.15;12.43;;;;;;;27.71;22.42;101082.25;4983717;28;20023;-88
2022/03/13 10:33:10;;;;;;;15.52;11.60;;;;;;;28.11;20.87;101087.56;4986389;28;20446;-88
2022/03/13 10:35:36;;;;;;;14.73;12.18;;;;;;;27.74;21.91;101081.91;4988475;28;20034;-89
2022/03/13 10:38:13;;;;;;;15.07;12.75;;;;;;;27.50;22.26;101085.66;4971484;28;20035;-91
2022/03/13 10:40:38;;;;;;;14.88;12.35;;;;;;;26.97;21.84;101076.47;4987493;28;20487;-91
2022/03/13 10:43:08;;;;;;;14.60;12.88;;;;;;;26.97;21.41;101067.41;4978082;28;20061;-90
2022/03/13 10:45:49;;;;;;;14.82;12.18;;;;;;;26.95;21.99;101067.56;4969177;28;20027;-91
2022/03/13 10:48:16;;;;;;;16.08;12.75;;;;;;;26.95;21.97;101066.72;4987930;28;20031;-89
2022/03/13 10:50:44;;;;;;;16.58;12.75;;;;;;;26.81;21.89;101073.81;4980467;28;20042;-89
2022/03/13 10:53:12;;;;;;;14.65;12.20;;;;;;;27.03;21.46;101064.78;4976776;28;20057;-90
2022/03/13 10:55:38;;;;;;;14.35;11.90;;;;;;;27.69;21.70;101069.81;4986912;28;20066;-90
2022/03/13 10:58:03;;;;;;;15.05;12.18;;;;;;;28.17;20.06;101052.06;4983208;28;20106;-89
2022/03/13 11:00:29;;;;;;;13.57;12.15;;;;;;;28.38;20.04;101055.97;4987516;28;20077;-89
2022/03/13 11:03:10;;;;;;;12.52;11.20;;;;;;;28.53;21.07;101045.88;4981731;28;20053;-86
2022/03/13 11:05:35;;;;;;;14.98;11.57;;;;;;;28.56;19.71;101055.63;4988735;28;20038;-87
2022/03/13 11:08:04;;;;;;;15.15;11.82;;;;;;;28.15;20.52;101037.75;4987681;28;20137;-89
2022/03/13 11:10:30;;;;;;;13.82;11.60;;;;;;;27.97;21.21;101054.53;4991345;28;20112;-91
2022/03/13 11:12:57;;;;;;;13.80;11.45;;;;;;;27.73;20.60;101047.41;4990510;28;20458;-90